sensor_id;sensor_type;location;lat;lon;timestamp;P1;durP1;ratioP1;P2;durP2;ratioP2
16512;SDS011;8369;48.030;11.598;2023-05-10T00:01:05;1.37;;;1.20;;
16512;SDS011;8369;48.030;11.598;2023-05-10T00:03:32;1.57;;;1.30;;
16512;SDS011;8369;48.030;11.598;2023-05-10T00:05:57;2.37;;;1.10;;
16512;SDS011;8369;48.030;11.598;2023-05-10T00:08:24;2.03;;;1.30;;
16512;SDS011;8369;48.030;11.598;2023-05-10T00:10:50;2.67;;;1.20;;
16512;SDS011;8369;48.030;11.598;2023-05-10T00:13:16;1.50;;;1.40;;
16512;SDS011;8369;48.030;11.598;2023-05-10T00:15:42;6.13;;;1.53;;
16512;SDS011;8369;48.030;11.598;2023-05-10T00:18:16;3.40;;;1.30;;
16512;SDS011;8369;48.030;11.598;2023-05-10T00:20:44;1.40;;;1.30;;
16512;SDS011;8369;48.030;11.598;2023-05-10T00:23:23;1.30;;;1.20;;
16512;SDS011;8369;48.030;11.598;2023-05-10T00:25:50;6.73;;;1.13;;
16512;SDS011;8369;48.030;11.598;2023-05-10T00:28:16;1.30;;;1.10;;
16512;SDS011;8369;48.030;11.598;2023-05-10T00:30:44;1.13;;;1.03;;
16512;SDS011;8369;48.030;11.598;2023-05-10T00:33:10;1.10;;;1.10;;
16512;SDS011;8369;48.030;11.598;2023-05-10T00:35:37;2.03;;;1.20;;
16512;SDS011;8369;48.030;11.598;2023-05-10T00:38:03;1.10;;;1.00;;
16512;SDS011;8369;48.030;11.598;2023-05-10T00:40:30;1.07;;;1.07;;
16512;SDS011;8369;48.030;11.598;2023-05-10T00:42:56;1.00;;;1.00;;
16512;SDS011;8369;48.030;11.598;2023-05-10T00:45:26;1.03;;;0.97;;
16512;SDS011;8369;48.030;11.598;2023-05-10T00:48:01;1.17;;;1.10;;
16512;SDS011;8369;48.030;11.598;2023-05-10T00:50:28;0.90;;;0.90;;
16512;SDS011;8369;48.030;11.598;2023-05-10T00:52:57;1.03;;;1.03;;
16512;SDS011;8369;48.030;11.598;2023-05-10T00:55:26;1.20;;;1.10;;
16512;SDS011;8369;48.030;11.598;2023-05-10T00:57:53;1.20;;;1.10;;
16512;SDS011;8369;48.030;11.598;2023-05-10T01:00:19;1.40;;;1.30;;
16512;SDS011;8369;48.030;11.598;2023-05-10T01:02:48;1.50;;;1.20;;
16512;SDS011;8369;48.030;11.598;2023-05-10T01:05:15;1.47;;;1.00;;
16512;SDS011;8369;48.030;11.598;2023-05-10T01:07:41;1.20;;;1.10;;
16512;SDS011;8369;48.030;11.598;2023-05-10T01:10:10;1.20;;;1.10;;
16512;SDS011;8369;48.030;11.598;2023-05-10T01:12:37;1.67;;;1.27;;
16512;SDS011;8369;48.030;11.598;2023-05-10T01:15:09;1.23;;;1.00;;
16512;SDS011;8369;48.030;11.598;2023-05-10T01:17:37;1.00;;;1.00;;
16512;SDS011;8369;48.030;11.598;2023-05-10T01:20:06;1.00;;;1.00;;
16512;SDS011;8369;48.030;11.598;2023-05-10T01:28:18;0.87;;;0.87;;
16512;SDS011;8369;48.030;11.598;2023-05-10T01:33:56;2.60;;;2.40;;
16512;SDS011;8369;48.030;11.598;2023-05-10T01:36:35;2.73;;;1.80;;
16512;SDS011;8369;48.030;11.598;2023-05-10T01:42:01;1.90;;;1.10;;
16512;SDS011;8369;48.030;11.598;2023-05-10T01:50:10;2.53;;;1.10;;
16512;SDS011;8369;48.030;11.598;2023-05-10T01:52:44;1.40;;;1.10;;
16512;SDS011;8369;48.030;11.598;2023-05-10T01:55:20;1.57;;;0.97;;
16512;SDS011;8369;48.030;11.598;2023-05-10T01:57:53;1.10;;;1.00;;
16512;SDS011;8369;48.030;11.598;2023-05-10T02:00:25;1.30;;;1.00;;
16512;SDS011;8369;48.030;11.598;2023-05-10T02:02:59;1.40;;;1.00;;
16512;SDS011;8369;48.030;11.598;2023-05-10T02:05:32;2.33;;;1.10;;
16512;SDS011;8369;48.030;11.598;2023-05-10T02:08:05;1.07;;;0.93;;
16512;SDS011;8369;48.030;11.598;2023-05-10T02:10:36;1.30;;;1.10;;
16512;SDS011;8369;48.030;11.598;2023-05-10T02:13:05;2.80;;;1.90;;
16512;SDS011;8369;48.030;11.598;2023-05-10T02:15:32;2.20;;;1.47;;
16512;SDS011;8369;48.030;11.598;2023-05-10T02:18:00;1.07;;;1.00;;
16512;SDS011;8369;48.030;11.598;2023-05-10T02:20:27;0.90;;;0.90;;
16512;SDS011;8369;48.030;11.598;2023-05-10T02:22:57;0.90;;;0.90;;
16512;SDS011;8369;48.030;11.598;2023-05-10T02:25:24;0.90;;;0.90;;
16512;SDS011;8369;48.030;11.598;2023-05-10T02:27:52;1.47;;;1.23;;
16512;SDS011;8369;48.030;11.598;2023-05-10T02:30:23;2.43;;;1.23;;
16512;SDS011;8369;48.030;11.598;2023-05-10T02:32:50;2.80;;;1.70;;
16512;SDS011;8369;48.030;11.598;2023-05-10T02:35:17;1.70;;;1.37;;
16512;SDS011;8369;48.030;11.598;2023-05-10T02:37:51;2.23;;;2.00;;
16512;SDS011;8369;48.030;11.598;2023-05-10T02:40:19;1.80;;;1.40;;
16512;SDS011;8369;48.030;11.598;2023-05-10T02:42:50;1.00;;;1.00;;
16512;SDS011;8369;48.030;11.598;2023-05-10T02:45:19;2.10;;;1.37;;
16512;SDS011;8369;48.030;11.598;2023-05-10T02:47:48;2.00;;;1.80;;
16512;SDS011;8369;48.030;11.598;2023-05-10T02:50:16;1.83;;;1.50;;
16512;SDS011;8369;48.030;11.598;2023-05-10T02:52:44;2.03;;;1.83;;
16512;SDS011;8369;48.030;11.598;2023-05-10T02:55:14;2.20;;;1.90;;
16512;SDS011;8369;48.030;11.598;2023-05-10T02:57:43;1.83;;;1.30;;
16512;SDS011;8369;48.030;11.598;2023-05-10T03:00:29;2.47;;;1.60;;
16512;SDS011;8369;48.030;11.598;2023-05-10T03:02:57;1.30;;;1.10;;
16512;SDS011;8369;48.030;11.598;2023-05-10T03:08:54;1.30;;;1.20;;
16512;SDS011;8369;48.030;11.598;2023-05-10T03:19:58;0.73;;;0.73;;
16512;SDS011;8369;48.030;11.598;2023-05-10T03:22:38;1.50;;;0.80;;
16512;SDS011;8369;48.030;11.598;2023-05-10T03:25:11;0.83;;;0.83;;
16512;SDS011;8369;48.030;11.598;2023-05-10T03:27:41;0.80;;;0.80;;
16512;SDS011;8369;48.030;11.598;2023-05-10T03:30:15;1.90;;;1.33;;
16512;SDS011;8369;48.030;11.598;2023-05-10T03:32:44;0.70;;;0.70;;
16512;SDS011;8369;48.030;11.598;2023-05-10T03:35:10;2.93;;;0.63;;
16512;SDS011;8369;48.030;11.598;2023-05-10T03:37:37;3.20;;;0.80;;
16512;SDS011;8369;48.030;11.598;2023-05-10T03:40:09;0.63;;;0.63;;
16512;SDS011;8369;48.030;11.598;2023-05-10T03:42:36;0.93;;;0.70;;
16512;SDS011;8369;48.030;11.598;2023-05-10T03:45:02;0.70;;;0.70;;
16512;SDS011;8369;48.030;11.598;2023-05-10T03:47:28;0.57;;;0.57;;
16512;SDS011;8369;48.030;11.598;2023-05-10T03:49:54;0.90;;;0.67;;
16512;SDS011;8369;48.030;11.598;2023-05-10T03:52:21;0.70;;;0.70;;
16512;SDS011;8369;48.030;11.598;2023-05-10T03:54:49;0.57;;;0.57;;
16512;SDS011;8369;48.030;11.598;2023-05-10T03:57:15;0.93;;;0.63;;
16512;SDS011;8369;48.030;11.598;2023-05-10T03:59:52;0.60;;;0.60;;
16512;SDS011;8369;48.030;11.598;2023-05-10T04:02:18;1.57;;;0.90;;
16512;SDS011;8369;48.030;11.598;2023-05-10T04:04:54;0.50;;;0.50;;
16512;SDS011;8369;48.030;11.598;2023-05-10T04:07:20;0.60;;;0.60;;
16512;SDS011;8369;48.030;11.598;2023-05-10T04:09:46;0.60;;;0.60;;
16512;SDS011;8369;48.030;11.598;2023-05-10T04:12:13;1.53;;;0.80;;
16512;SDS011;8369;48.030;11.598;2023-05-10T04:14:47;0.70;;;0.70;;
16512;SDS011;8369;48.030;11.598;2023-05-10T04:17:12;0.50;;;0.50;;
16512;SDS011;8369;48.030;11.598;2023-05-10T04:19:49;0.60;;;0.60;;
16512;SDS011;8369;48.030;11.598;2023-05-10T04:22:19;0.77;;;0.77;;
16512;SDS011;8369;48.030;11.598;2023-05-10T04:24:47;0.50;;;0.50;;
16512;SDS011;8369;48.030;11.598;2023-05-10T04:27:16;0.70;;;0.70;;
16512;SDS011;8369;48.030;11.598;2023-05-10T04:29:46;0.80;;;0.80;;
16512;SDS011;8369;48.030;11.598;2023-05-10T04:32:12;0.63;;;0.63;;
16512;SDS011;8369;48.030;11.598;2023-05-10T04:34:44;0.70;;;0.70;;
16512;SDS011;8369;48.030;11.598;2023-05-10T04:37:12;0.67;;;0.67;;
16512;SDS011;8369;48.030;11.598;2023-05-10T04:39:39;0.53;;;0.53;;
16512;SDS011;8369;48.030;11.598;2023-05-10T04:42:07;0.60;;;0.53;;
16512;SDS011;8369;48.030;11.598;2023-05-10T04:44:33;1.13;;;0.60;;
16512;SDS011;8369;48.030;11.598;2023-05-10T04:47:02;0.60;;;0.60;;
16512;SDS011;8369;48.030;11.598;2023-05-10T04:49:28;0.77;;;0.60;;
16512;SDS011;8369;48.030;11.598;2023-05-10T04:51:55;0.60;;;0.60;;
16512;SDS011;8369;48.030;11.598;2023-05-10T04:54:21;0.60;;;0.60;;
16512;SDS011;8369;48.030;11.598;2023-05-10T04:56:49;2.60;;;0.90;;
16512;SDS011;8369;48.030;11.598;2023-05-10T04:59:16;0.70;;;0.70;;
16512;SDS011;8369;48.030;11.598;2023-05-10T05:01:43;0.40;;;0.40;;
16512;SDS011;8369;48.030;11.598;2023-05-10T05:04:16;0.60;;;0.60;;
16512;SDS011;8369;48.030;11.598;2023-05-10T05:06:42;0.70;;;0.70;;
16512;SDS011;8369;48.030;11.598;2023-05-10T05:09:15;0.50;;;0.50;;
16512;SDS011;8369;48.030;11.598;2023-05-10T05:11:41;1.37;;;0.40;;
16512;SDS011;8369;48.030;11.598;2023-05-10T05:14:09;2.90;;;0.70;;
16512;SDS011;8369;48.030;11.598;2023-05-10T05:16:35;0.57;;;0.57;;
16512;SDS011;8369;48.030;11.598;2023-05-10T05:19:02;0.60;;;0.60;;
16512;SDS011;8369;48.030;11.598;2023-05-10T05:21:28;0.70;;;0.63;;
16512;SDS011;8369;48.030;11.598;2023-05-10T05:23:54;1.23;;;0.70;;
16512;SDS011;8369;48.030;11.598;2023-05-10T05:26:21;0.60;;;0.60;;
16512;SDS011;8369;48.030;11.598;2023-05-10T05:31:39;0.50;;;0.50;;
16512;SDS011;8369;48.030;11.598;2023-05-10T05:34:05;0.50;;;0.50;;
16512;SDS011;8369;48.030;11.598;2023-05-10T05:36:31;0.50;;;0.50;;
16512;SDS011;8369;48.030;11.598;2023-05-10T05:39:03;0.60;;;0.60;;
16512;SDS011;8369;48.030;11.598;2023-05-10T05:41:29;0.50;;;0.50;;
16512;SDS011;8369;48.030;11.598;2023-05-10T05:43:56;0.60;;;0.60;;
16512;SDS011;8369;48.030;11.598;2023-05-10T05:46:22;1.37;;;0.70;;
16512;SDS011;8369;48.030;11.598;2023-05-10T05:48:49;0.60;;;0.60;;
16512;SDS011;8369;48.030;11.598;2023-05-10T05:51:17;0.50;;;0.50;;
16512;SDS011;8369;48.030;11.598;2023-05-10T05:53:45;3.50;;;0.83;;
16512;SDS011;8369;48.030;11.598;2023-05-10T05:56:11;0.60;;;0.60;;
16512;SDS011;8369;48.030;11.598;2023-05-10T05:58:39;0.73;;;0.63;;
16512;SDS011;8369;48.030;11.598;2023-05-10T06:01:04;2.13;;;0.90;;
16512;SDS011;8369;48.030;11.598;2023-05-10T06:03:31;3.17;;;0.73;;
16512;SDS011;8369;48.030;11.598;2023-05-10T06:05:59;0.50;;;0.50;;
16512;SDS011;8369;48.030;11.598;2023-05-10T06:08:25;0.60;;;0.60;;
16512;SDS011;8369;48.030;11.598;2023-05-10T06:10:55;1.60;;;0.90;;
16512;SDS011;8369;48.030;11.598;2023-05-10T06:13:21;0.70;;;0.70;;
16512;SDS011;8369;48.030;11.598;2023-05-10T06:15:49;0.93;;;0.60;;
16512;SDS011;8369;48.030;11.598;2023-05-10T06:18:16;0.83;;;0.83;;
16512;SDS011;8369;48.030;11.598;2023-05-10T06:20:42;5.90;;;0.90;;
16512;SDS011;8369;48.030;11.598;2023-05-10T06:23:11;0.70;;;0.70;;
16512;SDS011;8369;48.030;11.598;2023-05-10T06:25:36;0.77;;;0.70;;
16512;SDS011;8369;48.030;11.598;2023-05-10T06:28:09;0.70;;;0.70;;
16512;SDS011;8369;48.030;11.598;2023-05-10T06:30:36;5.63;;;0.73;;
16512;SDS011;8369;48.030;11.598;2023-05-10T06:33:02;0.60;;;0.60;;
16512;SDS011;8369;48.030;11.598;2023-05-10T06:35:37;1.17;;;0.90;;
16512;SDS011;8369;48.030;11.598;2023-05-10T06:38:04;0.70;;;0.70;;
16512;SDS011;8369;48.030;11.598;2023-05-10T06:40:30;1.70;;;0.73;;
16512;SDS011;8369;48.030;11.598;2023-05-10T06:42:56;1.20;;;0.97;;
16512;SDS011;8369;48.030;11.598;2023-05-10T06:45:24;0.60;;;0.60;;
16512;SDS011;8369;48.030;11.598;2023-05-10T06:47:53;1.30;;;0.67;;
16512;SDS011;8369;48.030;11.598;2023-05-10T06:50:19;0.77;;;0.77;;
16512;SDS011;8369;48.030;11.598;2023-05-10T06:52:44;0.83;;;0.83;;
16512;SDS011;8369;48.030;11.598;2023-05-10T06:55:12;0.80;;;0.80;;
16512;SDS011;8369;48.030;11.598;2023-05-10T06:57:38;0.97;;;0.97;;
16512;SDS011;8369;48.030;11.598;2023-05-10T07:00:04;2.23;;;0.80;;
16512;SDS011;8369;48.030;11.598;2023-05-10T07:02:32;0.80;;;0.80;;
16512;SDS011;8369;48.030;11.598;2023-05-10T07:04:58;1.27;;;1.00;;
16512;SDS011;8369;48.030;11.598;2023-05-10T07:07:28;0.93;;;0.93;;
16512;SDS011;8369;48.030;11.598;2023-05-10T07:10:04;1.60;;;1.00;;
16512;SDS011;8369;48.030;11.598;2023-05-10T07:12:31;1.50;;;1.10;;
16512;SDS011;8369;48.030;11.598;2023-05-10T07:14:57;8.70;;;1.20;;
16512;SDS011;8369;48.030;11.598;2023-05-10T07:17:24;0.90;;;0.90;;
16512;SDS011;8369;48.030;11.598;2023-05-10T07:19:50;1.43;;;1.07;;
16512;SDS011;8369;48.030;11.598;2023-05-10T07:22:31;1.37;;;1.10;;
16512;SDS011;8369;48.030;11.598;2023-05-10T07:25:00;1.10;;;1.00;;
16512;SDS011;8369;48.030;11.598;2023-05-10T07:27:26;5.50;;;1.20;;
16512;SDS011;8369;48.030;11.598;2023-05-10T07:29:52;3.00;;;1.10;;
16512;SDS011;8369;48.030;11.598;2023-05-10T07:32:18;2.20;;;1.17;;
16512;SDS011;8369;48.030;11.598;2023-05-10T07:34:44;1.33;;;1.10;;
16512;SDS011;8369;48.030;11.598;2023-05-10T07:37:11;0.80;;;0.80;;
16512;SDS011;8369;48.030;11.598;2023-05-10T07:39:37;1.10;;;1.10;;
16512;SDS011;8369;48.030;11.598;2023-05-10T07:42:04;1.30;;;1.17;;
16512;SDS011;8369;48.030;11.598;2023-05-10T07:44:31;1.20;;;1.10;;
16512;SDS011;8369;48.030;11.598;2023-05-10T07:49:27;1.10;;;1.00;;
16512;SDS011;8369;48.030;11.598;2023-05-10T07:51:54;1.60;;;1.20;;
16512;SDS011;8369;48.030;11.598;2023-05-10T07:54:20;3.97;;;1.20;;
16512;SDS011;8369;48.030;11.598;2023-05-10T07:56:48;0.90;;;0.90;;
16512;SDS011;8369;48.030;11.598;2023-05-10T07:59:15;2.00;;;1.00;;
16512;SDS011;8369;48.030;11.598;2023-05-10T08:01:42;1.00;;;1.00;;
16512;SDS011;8369;48.030;11.598;2023-05-10T08:04:15;2.30;;;1.20;;
16512;SDS011;8369;48.030;11.598;2023-05-10T08:06:41;1.20;;;1.10;;
16512;SDS011;8369;48.030;11.598;2023-05-10T08:09:08;2.83;;;1.10;;
16512;SDS011;8369;48.030;11.598;2023-05-10T08:11:34;1.30;;;1.00;;
16512;SDS011;8369;48.030;11.598;2023-05-10T08:14:00;0.90;;;0.90;;
16512;SDS011;8369;48.030;11.598;2023-05-10T08:16:29;1.13;;;1.03;;
16512;SDS011;8369;48.030;11.598;2023-05-10T08:18:55;1.60;;;1.07;;
16512;SDS011;8369;48.030;11.598;2023-05-10T08:21:22;1.53;;;1.10;;
16512;SDS011;8369;48.030;11.598;2023-05-10T08:23:48;1.03;;;0.93;;
16512;SDS011;8369;48.030;11.598;2023-05-10T08:26:15;3.90;;;1.10;;
16512;SDS011;8369;48.030;11.598;2023-05-10T08:28:44;1.20;;;1.10;;
16512;SDS011;8369;48.030;11.598;2023-05-10T08:31:10;1.30;;;1.20;;
16512;SDS011;8369;48.030;11.598;2023-05-10T08:33:37;0.97;;;0.97;;
16512;SDS011;8369;48.030;11.598;2023-05-10T08:36:03;1.00;;;1.00;;
16512;SDS011;8369;48.030;11.598;2023-05-10T08:38:31;1.10;;;1.00;;
16512;SDS011;8369;48.030;11.598;2023-05-10T08:40:59;2.13;;;0.93;;
16512;SDS011;8369;48.030;11.598;2023-05-10T08:43:28;1.27;;;1.00;;
16512;SDS011;8369;48.030;11.598;2023-05-10T08:46:01;2.67;;;1.20;;
16512;SDS011;8369;48.030;11.598;2023-05-10T08:48:32;1.00;;;1.00;;
16512;SDS011;8369;48.030;11.598;2023-05-10T08:51:00;2.13;;;1.00;;
16512;SDS011;8369;48.030;11.598;2023-05-10T08:53:28;0.80;;;0.80;;
16512;SDS011;8369;48.030;11.598;2023-05-10T08:56:02;1.00;;;1.00;;
16512;SDS011;8369;48.030;11.598;2023-05-10T08:58:28;1.03;;;1.00;;
16512;SDS011;8369;48.030;11.598;2023-05-10T09:00:56;1.00;;;1.00;;
16512;SDS011;8369;48.030;11.598;2023-05-10T09:03:26;0.90;;;0.90;;
16512;SDS011;8369;48.030;11.598;2023-05-10T09:05:54;1.67;;;1.00;;
16512;SDS011;8369;48.030;11.598;2023-05-10T09:08:23;0.97;;;0.90;;
16512;SDS011;8369;48.030;11.598;2023-05-10T09:10:56;0.93;;;0.93;;
16512;SDS011;8369;48.030;11.598;2023-05-10T09:13:23;0.90;;;0.90;;
16512;SDS011;8369;48.030;11.598;2023-05-10T09:15:51;0.80;;;0.80;;
16512;SDS011;8369;48.030;11.598;2023-05-10T09:18:18;0.87;;;0.80;;
16512;SDS011;8369;48.030;11.598;2023-05-10T09:23:29;0.83;;;0.83;;
16512;SDS011;8369;48.030;11.598;2023-05-10T09:26:07;0.80;;;0.80;;
16512;SDS011;8369;48.030;11.598;2023-05-10T09:28:57;1.00;;;0.90;;
16512;SDS011;8369;48.030;11.598;2023-05-10T09:31:24;1.23;;;1.13;;
16512;SDS011;8369;48.030;11.598;2023-05-10T09:34:19;6.03;;;0.97;;
16512;SDS011;8369;48.030;11.598;2023-05-10T09:36:54;1.37;;;0.80;;
16512;SDS011;8369;48.030;11.598;2023-05-10T09:39:33;1.93;;;0.90;;
16512;SDS011;8369;48.030;11.598;2023-05-10T09:42:04;0.83;;;0.83;;
16512;SDS011;8369;48.030;11.598;2023-05-10T09:44:36;2.60;;;0.90;;
16512;SDS011;8369;48.030;11.598;2023-05-10T09:47:04;0.90;;;0.90;;
16512;SDS011;8369;48.030;11.598;2023-05-10T09:49:31;1.40;;;0.90;;
16512;SDS011;8369;48.030;11.598;2023-05-10T09:54:34;1.10;;;1.00;;
16512;SDS011;8369;48.030;11.598;2023-05-10T09:57:01;6.10;;;1.20;;
16512;SDS011;8369;48.030;11.598;2023-05-10T09:59:35;1.53;;;1.13;;
16512;SDS011;8369;48.030;11.598;2023-05-10T10:02:07;0.87;;;0.87;;
16512;SDS011;8369;48.030;11.598;2023-05-10T10:04:38;1.23;;;1.00;;
16512;SDS011;8369;48.030;11.598;2023-05-10T10:07:06;2.27;;;1.10;;
16512;SDS011;8369;48.030;11.598;2023-05-10T10:09:33;1.30;;;1.03;;
16512;SDS011;8369;48.030;11.598;2023-05-10T10:12:01;1.20;;;1.00;;
16512;SDS011;8369;48.030;11.598;2023-05-10T10:14:37;1.30;;;1.20;;
16512;SDS011;8369;48.030;11.598;2023-05-10T10:17:04;2.57;;;1.00;;
16512;SDS011;8369;48.030;11.598;2023-05-10T10:19:32;1.17;;;0.87;;
16512;SDS011;8369;48.030;11.598;2023-05-10T10:22:01;0.83;;;0.83;;
16512;SDS011;8369;48.030;11.598;2023-05-10T10:24:28;1.10;;;0.90;;
16512;SDS011;8369;48.030;11.598;2023-05-10T10:26:55;4.53;;;1.10;;
16512;SDS011;8369;48.030;11.598;2023-05-10T10:29:37;1.33;;;1.23;;
16512;SDS011;8369;48.030;11.598;2023-05-10T10:32:30;1.07;;;0.97;;
16512;SDS011;8369;48.030;11.598;2023-05-10T10:35:20;2.90;;;1.10;;
16512;SDS011;8369;48.030;11.598;2023-05-10T10:37:54;0.93;;;0.93;;
16512;SDS011;8369;48.030;11.598;2023-05-10T10:40:27;1.30;;;1.07;;
16512;SDS011;8369;48.030;11.598;2023-05-10T10:42:54;1.30;;;1.20;;
16512;SDS011;8369;48.030;11.598;2023-05-10T10:45:21;1.43;;;1.00;;
16512;SDS011;8369;48.030;11.598;2023-05-10T10:47:48;1.00;;;1.00;;
16512;SDS011;8369;48.030;11.598;2023-05-10T10:50:15;1.30;;;1.20;;
16512;SDS011;8369;48.030;11.598;2023-05-10T10:52:43;1.20;;;1.00;;
16512;SDS011;8369;48.030;11.598;2023-05-10T10:55:14;1.60;;;1.10;;
16512;SDS011;8369;48.030;11.598;2023-05-10T11:00:29;2.57;;;1.10;;
16512;SDS011;8369;48.030;11.598;2023-05-10T11:03:00;1.00;;;1.00;;
16512;SDS011;8369;48.030;11.598;2023-05-10T11:05:43;1.30;;;1.20;;
16512;SDS011;8369;48.030;11.598;2023-05-10T11:10:52;1.67;;;1.30;;
16512;SDS011;8369;48.030;11.598;2023-05-10T11:16:12;2.20;;;1.20;;
16512;SDS011;8369;48.030;11.598;2023-05-10T11:19:05;1.80;;;1.33;;
16512;SDS011;8369;48.030;11.598;2023-05-10T11:21:33;1.20;;;1.10;;
16512;SDS011;8369;48.030;11.598;2023-05-10T11:24:12;1.90;;;1.10;;
16512;SDS011;8369;48.030;11.598;2023-05-10T11:26:40;2.00;;;1.03;;
16512;SDS011;8369;48.030;11.598;2023-05-10T11:29:09;1.13;;;1.03;;
16512;SDS011;8369;48.030;11.598;2023-05-10T11:31:35;0.80;;;0.80;;
16512;SDS011;8369;48.030;11.598;2023-05-10T11:34:10;2.20;;;1.10;;
16512;SDS011;8369;48.030;11.598;2023-05-10T11:36:38;1.00;;;1.00;;
16512;SDS011;8369;48.030;11.598;2023-05-10T11:39:04;0.90;;;0.90;;
16512;SDS011;8369;48.030;11.598;2023-05-10T11:41:31;2.43;;;1.10;;
16512;SDS011;8369;48.030;11.598;2023-05-10T11:43:57;2.73;;;1.10;;
16512;SDS011;8369;48.030;11.598;2023-05-10T11:46:25;0.93;;;0.93;;
16512;SDS011;8369;48.030;11.598;2023-05-10T11:48:57;2.23;;;1.10;;
16512;SDS011;8369;48.030;11.598;2023-05-10T11:51:28;1.50;;;0.87;;
16512;SDS011;8369;48.030;11.598;2023-05-10T11:53:55;3.70;;;1.10;;
16512;SDS011;8369;48.030;11.598;2023-05-10T11:56:22;2.23;;;0.90;;
16512;SDS011;8369;48.030;11.598;2023-05-10T11:58:55;1.33;;;0.90;;
16512;SDS011;8369;48.030;11.598;2023-05-10T12:01:26;5.73;;;1.23;;
16512;SDS011;8369;48.030;11.598;2023-05-10T12:03:54;1.60;;;1.30;;
16512;SDS011;8369;48.030;11.598;2023-05-10T12:06:28;0.80;;;0.80;;
16512;SDS011;8369;48.030;11.598;2023-05-10T12:08:56;1.57;;;1.10;;
16512;SDS011;8369;48.030;11.598;2023-05-10T12:11:26;4.13;;;1.50;;
16512;SDS011;8369;48.030;11.598;2023-05-10T12:13:53;2.80;;;1.70;;
16512;SDS011;8369;48.030;11.598;2023-05-10T12:16:28;6.67;;;3.60;;
16512;SDS011;8369;48.030;11.598;2023-05-10T12:18:57;4.00;;;2.37;;
16512;SDS011;8369;48.030;11.598;2023-05-10T12:21:25;3.33;;;1.70;;
16512;SDS011;8369;48.030;11.598;2023-05-10T12:23:54;1.93;;;1.20;;
16512;SDS011;8369;48.030;11.598;2023-05-10T12:26:28;2.97;;;1.70;;
16512;SDS011;8369;48.030;11.598;2023-05-10T12:28:54;1.47;;;1.20;;
16512;SDS011;8369;48.030;11.598;2023-05-10T12:34:36;1.00;;;1.00;;
16512;SDS011;8369;48.030;11.598;2023-05-10T12:37:04;2.40;;;1.17;;
16512;SDS011;8369;48.030;11.598;2023-05-10T12:39:42;2.33;;;1.20;;
16512;SDS011;8369;48.030;11.598;2023-05-10T12:42:15;1.10;;;1.00;;
16512;SDS011;8369;48.030;11.598;2023-05-10T12:44:42;2.03;;;1.10;;
16512;SDS011;8369;48.030;11.598;2023-05-10T12:47:09;1.93;;;0.90;;
16512;SDS011;8369;48.030;11.598;2023-05-10T12:49:39;1.23;;;0.90;;
16512;SDS011;8369;48.030;11.598;2023-05-10T12:52:05;0.97;;;0.90;;
16512;SDS011;8369;48.030;11.598;2023-05-10T12:54:34;3.93;;;1.20;;
16512;SDS011;8369;48.030;11.598;2023-05-10T12:57:00;0.80;;;0.80;;
16512;SDS011;8369;48.030;11.598;2023-05-10T12:59:26;0.90;;;0.90;;
16512;SDS011;8369;48.030;11.598;2023-05-10T13:01:54;0.90;;;0.90;;
16512;SDS011;8369;48.030;11.598;2023-05-10T13:04:20;1.60;;;1.20;;
16512;SDS011;8369;48.030;11.598;2023-05-10T13:06:46;1.40;;;1.30;;
16512;SDS011;8369;48.030;11.598;2023-05-10T13:09:12;1.97;;;1.77;;
16512;SDS011;8369;48.030;11.598;2023-05-10T13:11:38;1.40;;;1.30;;
16512;SDS011;8369;48.030;11.598;2023-05-10T13:14:04;1.97;;;1.10;;
16512;SDS011;8369;48.030;11.598;2023-05-10T13:16:30;1.10;;;1.00;;
16512;SDS011;8369;48.030;11.598;2023-05-10T13:18:58;1.53;;;1.10;;
16512;SDS011;8369;48.030;11.598;2023-05-10T13:21:25;2.50;;;2.20;;
16512;SDS011;8369;48.030;11.598;2023-05-10T13:23:52;2.33;;;1.20;;
16512;SDS011;8369;48.030;11.598;2023-05-10T13:26:18;2.13;;;1.43;;
16512;SDS011;8369;48.030;11.598;2023-05-10T13:28:45;1.83;;;1.27;;
16512;SDS011;8369;48.030;11.598;2023-05-10T13:31:17;3.67;;;1.33;;
16512;SDS011;8369;48.030;11.598;2023-05-10T13:33:50;1.47;;;1.33;;
16512;SDS011;8369;48.030;11.598;2023-05-10T13:36:16;0.90;;;0.90;;
16512;SDS011;8369;48.030;11.598;2023-05-10T13:38:43;0.90;;;0.90;;
16512;SDS011;8369;48.030;11.598;2023-05-10T13:41:09;1.77;;;1.10;;
16512;SDS011;8369;48.030;11.598;2023-05-10T13:43:36;2.03;;;1.10;;
16512;SDS011;8369;48.030;11.598;2023-05-10T13:46:02;1.10;;;1.00;;
16512;SDS011;8369;48.030;11.598;2023-05-10T13:48:28;1.00;;;1.00;;
16512;SDS011;8369;48.030;11.598;2023-05-10T13:50:54;2.67;;;1.00;;
16512;SDS011;8369;48.030;11.598;2023-05-10T13:53:25;1.57;;;1.47;;
16512;SDS011;8369;48.030;11.598;2023-05-10T13:55:51;1.40;;;1.00;;
16512;SDS011;8369;48.030;11.598;2023-05-10T13:58:25;1.37;;;1.00;;
16512;SDS011;8369;48.030;11.598;2023-05-10T14:00:51;2.00;;;1.47;;
16512;SDS011;8369;48.030;11.598;2023-05-10T14:03:17;1.20;;;1.10;;
16512;SDS011;8369;48.030;11.598;2023-05-10T14:05:44;1.40;;;1.10;;
16512;SDS011;8369;48.030;11.598;2023-05-10T14:08:11;1.30;;;1.20;;
16512;SDS011;8369;48.030;11.598;2023-05-10T14:10:38;1.57;;;1.10;;
16512;SDS011;8369;48.030;11.598;2023-05-10T14:13:04;1.80;;;1.60;;
16512;SDS011;8369;48.030;11.598;2023-05-10T14:15:31;1.20;;;1.10;;
16512;SDS011;8369;48.030;11.598;2023-05-10T14:17:57;1.10;;;1.00;;
16512;SDS011;8369;48.030;11.598;2023-05-10T14:20:23;1.50;;;1.30;;
16512;SDS011;8369;48.030;11.598;2023-05-10T14:22:50;2.00;;;1.80;;
16512;SDS011;8369;48.030;11.598;2023-05-10T14:25:15;2.60;;;2.00;;
16512;SDS011;8369;48.030;11.598;2023-05-10T14:27:48;2.83;;;2.40;;
16512;SDS011;8369;48.030;11.598;2023-05-10T14:30:20;1.30;;;1.20;;
16512;SDS011;8369;48.030;11.598;2023-05-10T14:32:46;2.03;;;1.00;;
16512;SDS011;8369;48.030;11.598;2023-05-10T14:35:13;1.20;;;1.10;;
16512;SDS011;8369;48.030;11.598;2023-05-10T14:37:40;1.97;;;1.00;;
16512;SDS011;8369;48.030;11.598;2023-05-10T14:40:08;2.77;;;2.07;;
16512;SDS011;8369;48.030;11.598;2023-05-10T14:42:34;5.77;;;1.80;;
16512;SDS011;8369;48.030;11.598;2023-05-10T14:45:03;2.00;;;1.43;;
16512;SDS011;8369;48.030;11.598;2023-05-10T14:47:36;3.13;;;1.57;;
16512;SDS011;8369;48.030;11.598;2023-05-10T14:50:02;1.60;;;1.20;;
16512;SDS011;8369;48.030;11.598;2023-05-10T14:52:30;3.00;;;2.10;;
16512;SDS011;8369;48.030;11.598;2023-05-10T14:54:59;2.87;;;2.13;;
16512;SDS011;8369;48.030;11.598;2023-05-10T14:57:28;1.80;;;1.50;;
16512;SDS011;8369;48.030;11.598;2023-05-10T14:59:55;1.87;;;1.43;;
16512;SDS011;8369;48.030;11.598;2023-05-10T15:02:22;3.47;;;2.13;;
16512;SDS011;8369;48.030;11.598;2023-05-10T15:04:48;4.43;;;2.23;;
16512;SDS011;8369;48.030;11.598;2023-05-10T15:07:16;2.47;;;1.80;;
16512;SDS011;8369;48.030;11.598;2023-05-10T15:09:44;1.30;;;1.20;;
16512;SDS011;8369;48.030;11.598;2023-05-10T15:12:11;5.13;;;2.87;;
16512;SDS011;8369;48.030;11.598;2023-05-10T15:14:37;5.80;;;3.77;;
16512;SDS011;8369;48.030;11.598;2023-05-10T15:17:05;6.03;;;3.17;;
16512;SDS011;8369;48.030;11.598;2023-05-10T15:19:38;2.70;;;1.70;;
16512;SDS011;8369;48.030;11.598;2023-05-10T15:22:17;3.03;;;1.80;;
16512;SDS011;8369;48.030;11.598;2023-05-10T15:24:44;0.93;;;0.93;;
16512;SDS011;8369;48.030;11.598;2023-05-10T15:27:10;1.17;;;1.00;;
16512;SDS011;8369;48.030;11.598;2023-05-10T15:29:36;1.30;;;1.20;;
16512;SDS011;8369;48.030;11.598;2023-05-10T15:32:02;2.00;;;1.00;;
16512;SDS011;8369;48.030;11.598;2023-05-10T15:34:32;1.13;;;1.10;;
16512;SDS011;8369;48.030;11.598;2023-05-10T15:36:58;2.00;;;1.10;;
16512;SDS011;8369;48.030;11.598;2023-05-10T15:39:24;1.20;;;1.10;;
16512;SDS011;8369;48.030;11.598;2023-05-10T15:41:51;1.17;;;1.17;;
16512;SDS011;8369;48.030;11.598;2023-05-10T15:44:17;1.43;;;1.23;;
16512;SDS011;8369;48.030;11.598;2023-05-10T15:46:48;1.30;;;1.20;;
16512;SDS011;8369;48.030;11.598;2023-05-10T15:49:14;1.60;;;1.50;;